Dobrodošli na spletni strani vremenske postaje Senovo. Vse informacije so informativnega značaja, saj vremenska postaja ni del državne mreže meteoroloških postaj. AKTUALNIH OBVESTIL NI.


Posebna pozornost v zvezi z vremenskimi dogajanji ni potrebna.    Posebna pozornost v zvezi z vremenskimi dogajanji ni potrebna.

Pogled proti Armezu več informacij Pogled proti Armezu


Lisca več informacij Lisca


Radar strel več informacij blitzortung!


Radar padavin več informacij rain snow radar


Obiščite še:

Template documentation
and downloads

And another site



Weather Underground, zgodovina - Tekstovno

Dnevni povzetek za December 28, 2017 Enote:  Angleško    Metrično   Obe
« Predhodni Dan
Naslednji Dan »
Dnevni Tedenski Mesečni Letni Po meri
  Višja: Nižja: Povprečje:
Temperatura: TemperatureC °F 0.6 °F 4.7 °F
Točka rosišča: DewpointC °F -1.0 °F 2.8 °F
Vlažnost: Humidity % 82 % 88 %
Hitrost vetra: WindSpeedKMH mph 0.0 mph 2.9 mph
Sunki vetra: WindSpeedGustKMH mph - -
Veter:- - SSE
Zračni tlak: PressurehPa in 985.0 in -
Padavine: 19.6 in    
Historical Graphs
 
 
Tabelarni podarki za December 28, 2017
Čas Temperatura Točka rosišča Zračni tlak Veter Hitrost vetra Sunki vetra Vlažnost Intenziteta padavin (urna)
TemperatureC °F DewpointC °F PressurehPa in Calm     Humidity % HourlyPrecipMM in
00:04 9.0 °F 6.1 °F 987.0 in East 5.0 mph 14.3 mph 82 % 0.0 in
00:05 9.0 °F 6.1 °F 987.0 in East 5.6 mph 14.3 mph 82 % 0.0 in
00:10 9.0 °F 6.1 °F 987.0 in East 6.4 mph 14.3 mph 82 % 0.0 in
00:16 9.0 °F 6.1 °F 986.0 in ESE 7.2 mph 37.8 mph 82 % 0.0 in
00:17 9.0 °F 6.1 °F 986.0 in SSE 9.3 mph 37.8 mph 82 % 0.0 in
00:18 9.0 °F 6.1 °F 986.0 in SSW 9.3 mph 37.8 mph 82 % 0.0 in
00:23 9.0 °F 6.1 °F 986.0 in South 9.0 mph 37.8 mph 82 % 0.0 in
00:26 9.0 °F 6.1 °F 986.0 in ESE 6.8 mph 23.8 mph 82 % 0.0 in
00:27 9.0 °F 6.1 °F 986.0 in ENE 4.7 mph 9.7 mph 82 % 0.0 in
00:32 9.0 °F 6.1 °F 987.0 in WNW 4.8 mph 13.7 mph 82 % 0.0 in
00:37 9.0 °F 6.1 °F 987.0 in SW 5.6 mph 13.7 mph 82 % 0.0 in
00:38 9.0 °F 6.1 °F 987.0 in SW 5.5 mph 13.7 mph 82 % 0.0 in
00:43 9.0 °F 6.1 °F 987.0 in South 5.3 mph 12.2 mph 82 % 0.0 in
00:48 9.0 °F 6.1 °F 987.0 in SSE 5.1 mph 12.6 mph 82 % 0.0 in
00:50 9.0 °F 6.1 °F 987.0 in ESE 5.3 mph 12.6 mph 82 % 0.0 in
00:55 9.0 °F 6.1 °F 987.0 in East 7.4 mph 21.2 mph 82 % 0.0 in
00:58 9.0 °F 6.1 °F 987.0 in East 8.7 mph 21.2 mph 82 % 0.0 in
01:01 9.0 °F 6.1 °F 987.0 in East 9.3 mph 21.2 mph 82 % 0.0 in
01:05 9.0 °F 6.1 °F 987.0 in SE 7.4 mph 13.0 mph 82 % 0.0 in
01:10 9.0 °F 6.1 °F 987.0 in East 7.4 mph 13.7 mph 82 % 0.0 in
01:12 9.0 °F 6.1 °F 987.0 in East 6.9 mph 13.7 mph 82 % 0.0 in
01:17 9.0 °F 6.1 °F 986.0 in ENE 6.4 mph 13.7 mph 82 % 0.0 in
01:18 9.0 °F 6.1 °F 986.0 in ENE 6.3 mph 13.7 mph 82 % 0.0 in
01:23 9.0 °F 6.1 °F 986.0 in ENE 7.1 mph 15.1 mph 82 % 0.0 in
01:26 9.0 °F 6.1 °F 986.0 in ENE 7.9 mph 16.3 mph 82 % 0.0 in
01:28 9.0 °F 6.1 °F 985.0 in East 8.4 mph 16.3 mph 82 % 0.0 in
01:33 9.0 °F 6.1 °F 985.0 in East 10.0 mph 27.4 mph 82 % 0.0 in
01:35 9.0 °F 6.1 °F 985.0 in East 9.5 mph 27.4 mph 82 % 0.3 in
01:36 9.0 °F 6.1 °F 985.0 in ESE 9.3 mph 27.4 mph 82 % 0.3 in
01:41 9.0 °F 6.1 °F 985.0 in East 7.7 mph 13.7 mph 82 % 0.3 in
01:44 9.0 °F 6.1 °F 986.0 in East 6.9 mph 13.7 mph 82 % 0.3 in
01:47 9.0 °F 6.1 °F 986.0 in ENE 6.6 mph 19.1 mph 82 % 0.3 in
01:52 9.0 °F 6.1 °F 986.0 in ENE 7.7 mph 19.1 mph 82 % 0.3 in
01:57 9.0 °F 6.1 °F 986.0 in NNE 7.9 mph 16.3 mph 82 % 0.3 in
02:01 9.0 °F 6.1 °F 986.0 in NNW 7.4 mph 11.9 mph 82 % 0.3 in
02:06 9.0 °F 6.1 °F 986.0 in NNW 6.6 mph 14.0 mph 82 % 0.3 in
02:07 9.0 °F 6.1 °F 986.0 in NNW 6.6 mph 14.0 mph 82 % 0.3 in
02:12 9.0 °F 6.1 °F 986.0 in North 5.6 mph 14.0 mph 82 % 0.3 in
02:13 9.0 °F 6.1 °F 986.0 in NNW 6.0 mph 14.0 mph 82 % 0.3 in
02:18 9.0 °F 6.1 °F 986.0 in NNW 5.8 mph 20.9 mph 82 % 0.3 in
02:23 9.0 °F 6.1 °F 986.0 in WNW 7.6 mph 20.9 mph 82 % 0.3 in
02:25 9.0 °F 6.1 °F 986.0 in WNW 7.9 mph 20.9 mph 82 % 0.3 in
02:26 9.0 °F 6.1 °F 986.0 in WNW 7.9 mph 19.8 mph 82 % 0.3 in
02:31 9.0 °F 6.1 °F 987.0 in WNW 6.0 mph 15.1 mph 82 % 0.3 in
02:36 9.0 °F 6.1 °F 987.0 in NW 6.3 mph 16.3 mph 82 % 0.3 in
02:37 9.0 °F 6.1 °F 987.0 in NW 6.4 mph 16.3 mph 82 % 0.3 in
02:42 9.0 °F 6.1 °F 987.0 in WNW 7.2 mph 23.3 mph 82 % 0.5 in
02:44 9.0 °F 6.1 °F 988.0 in West 7.4 mph 23.3 mph 82 % 0.8 in
02:49 9.0 °F 6.1 °F 988.0 in WSW 11.3 mph 24.8 mph 82 % 1.3 in
02:54 9.0 °F 6.1 °F 988.0 in WSW 11.3 mph 24.8 mph 82 % 1.5 in
02:55 9.0 °F 6.1 °F 988.0 in WSW 11.3 mph 24.8 mph 82 % 1.8 in
02:58 9.0 °F 6.1 °F 987.0 in WSW 9.8 mph 16.3 mph 82 % 1.8 in
03:01 9.0 °F 6.1 °F 987.0 in WSW 8.8 mph 16.3 mph 82 % 2.0 in
03:05 9.0 °F 6.1 °F 987.0 in WNW 6.4 mph 12.6 mph 82 % 2.3 in
03:06 9.0 °F 6.1 °F 987.0 in WNW 5.3 mph 12.6 mph 82 % 2.3 in
03:11 9.0 °F 6.1 °F 987.0 in WNW 4.8 mph 10.1 mph 82 % 2.3 in
03:15 9.0 °F 6.1 °F 986.0 in WNW 5.0 mph 10.1 mph 82 % 2.5 in
03:17 9.0 °F 6.1 °F 986.0 in WNW 4.8 mph 9.3 mph 82 % 2.5 in
03:22 9.0 °F 6.1 °F 986.0 in WNW 4.5 mph 9.3 mph 82 % 2.5 in
03:26 9.0 °F 6.1 °F 986.0 in WNW 5.1 mph 9.0 mph 82 % 2.5 in
03:31 9.0 °F 6.1 °F 987.0 in WNW 4.3 mph 9.0 mph 82 % 2.5 in
03:32 9.0 °F 6.1 °F 987.0 in WNW 3.9 mph 8.7 mph 82 % 2.5 in
03:37 9.0 °F 6.1 °F 987.0 in NW 2.7 mph 5.0 mph 82 % 2.3 in
03:42 9.0 °F 6.1 °F 987.0 in NW 2.6 mph 5.0 mph 82 % 2.0 in
03:43 9.0 °F 6.1 °F 987.0 in WNW 2.4 mph 5.0 mph 82 % 2.0 in
03:48 9.0 °F 6.1 °F 987.0 in NW 0.5 mph 5.0 mph 82 % 1.3 in
03:50 9.0 °F 6.1 °F 987.0 in Calm     82 % 1.3 in
03:55 9.0 °F 6.1 °F 987.0 in SW 0.8 mph 4.7 mph 82 % 1.0 in
03:56 9.0 °F 6.1 °F 987.0 in SW 0.8 mph 4.7 mph 82 % 1.0 in
03:57 9.0 °F 6.1 °F 987.0 in SW 0.8 mph 4.7 mph 82 % 0.8 in
04:01 9.0 °F 6.1 °F 987.0 in SW 0.8 mph 4.7 mph 82 % 0.5 in
04:03 9.0 °F 6.1 °F 987.0 in SW 0.5 mph 3.2 mph 82 % 0.5 in
04:07 9.0 °F 6.1 °F 987.0 in NW 0.3 mph 3.2 mph 82 % 0.3 in
04:12 9.0 °F 6.1 °F 987.0 in NW 0.3 mph 3.2 mph 82 % 0.3 in
04:17 9.0 °F 6.1 °F 986.0 in Calm     82 % 0.3 in
04:22 9.0 °F 6.1 °F 986.0 in Calm     82 % 0.0 in
04:24 9.0 °F 6.1 °F 986.0 in Calm     82 % 0.0 in
04:26 9.0 °F 6.1 °F 986.0 in Calm     82 % 0.0 in
04:30 9.0 °F 6.1 °F 987.0 in Calm     82 % 0.0 in
04:35 9.0 °F 6.1 °F 987.0 in Calm     82 % 0.0 in
04:36 9.0 °F 6.1 °F 987.0 in Calm     82 % 0.0 in
04:41 9.0 °F 6.1 °F 987.0 in NW 0.2 mph 3.2 mph 82 % 0.0 in
04:43 9.0 °F 6.1 °F 987.0 in NW 0.2 mph 4.7 mph 82 % 0.0 in
04:48 9.0 °F 6.1 °F 987.0 in West 2.3 mph 5.5 mph 82 % 0.0 in
04:51 9.0 °F 6.1 °F 987.0 in West 2.3 mph 5.5 mph 82 % 0.0 in
04:56 9.0 °F 6.1 °F 987.0 in West 0.6 mph 3.5 mph 82 % 0.0 in
04:57 9.0 °F 6.1 °F 987.0 in North 0.2 mph   82 % 0.0 in
05:02 9.0 °F 6.1 °F 987.0 in Calm     82 % 0.0 in
05:05 9.0 °F 6.1 °F 987.0 in Calm     82 % 0.0 in
05:09 9.0 °F 6.1 °F 987.0 in Calm     82 % 0.0 in
05:14 9.0 °F 6.1 °F 987.0 in Calm     82 % 0.0 in
05:15 9.0 °F 6.1 °F 987.0 in Calm     82 % 0.0 in
05:20 9.0 °F 6.1 °F 987.0 in Calm     82 % 0.0 in
05:21 9.0 °F 6.1 °F 987.0 in Calm     82 % 0.0 in
05:26 9.0 °F 6.1 °F 987.0 in Calm     82 % 0.0 in
05:29 9.0 °F 6.1 °F 988.0 in Calm     82 % 0.0 in
05:30 9.0 °F 6.1 °F 988.0 in Calm     82 % 0.0 in
05:35 9.0 °F 6.1 °F 988.0 in Calm     82 % 0.0 in
05:36 9.0 °F 6.1 °F 988.0 in Calm     82 % 0.0 in
05:41 9.0 °F 6.1 °F 988.0 in Calm     82 % 0.0 in
05:42 9.0 °F 6.1 °F 988.0 in Calm     82 % 0.0 in
05:47 9.0 °F 6.1 °F 987.0 in Calm     82 % 0.0 in
05:48 9.0 °F 6.1 °F 987.0 in Calm     82 % 0.0 in
05:50 9.0 °F 6.1 °F 987.0 in Calm     82 % 0.0 in
05:55 9.0 °F 6.1 °F 987.0 in Calm     82 % 0.0 in
05:57 9.0 °F 6.1 °F 987.0 in Calm     82 % 0.0 in
06:02 9.0 °F 6.1 °F 986.0 in Calm     82 % 0.0 in
06:03 9.0 °F 6.1 °F 986.0 in Calm     82 % 0.0 in
06:08 9.0 °F 6.1 °F 986.0 in Calm     82 % 0.0 in
06:09 9.0 °F 6.1 °F 986.0 in Calm     82 % 0.0 in
06:14 9.0 °F 6.1 °F 986.0 in Calm     82 % 0.0 in
06:16 9.0 °F 6.1 °F 986.0 in Calm     82 % 0.0 in
06:17 9.0 °F 6.1 °F 986.0 in Calm     82 % 0.0 in
06:22 9.0 °F 6.1 °F 986.0 in Calm     82 % 0.0 in
06:27 9.0 °F 6.1 °F 986.0 in Calm     82 % 0.0 in
06:28 9.0 °F 6.1 °F 986.0 in Calm     82 % 0.0 in
06:33 9.0 °F 6.1 °F 987.0 in Calm     82 % 0.0 in
06:38 9.0 °F 6.1 °F 987.0 in Calm     82 % 0.0 in
06:40 9.0 °F 6.1 °F 987.0 in Calm     82 % 0.0 in
06:43 9.0 °F 6.1 °F 987.0 in Calm     82 % 0.0 in
06:48 9.0 °F 6.1 °F 987.0 in West 0.3 mph 4.0 mph 82 % 0.0 in
06:51 9.0 °F 6.1 °F 987.0 in West 0.5 mph 4.0 mph 82 % 0.0 in
06:54 9.0 °F 6.1 °F 987.0 in West 0.5 mph 4.0 mph 82 % 0.0 in
06:56 9.0 °F 6.1 °F 987.0 in WSW 1.3 mph 6.1 mph 82 % 0.0 in
07:01 9.0 °F 6.1 °F 987.0 in SW 1.9 mph 6.1 mph 82 % 0.0 in
07:08 4.7 °F 3.1 °F 987.0 in NNE 1.1 mph 4.7 mph 89 % 0.0 in
07:13 4.6 °F 2.9 °F 987.0 in NW 0.5 mph 2.6 mph 89 % 0.0 in
07:14 4.6 °F 2.9 °F 987.0 in NW 0.5 mph 2.6 mph 89 % 0.0 in
07:19 4.5 °F 2.8 °F 987.0 in North 0.2 mph   89 % 0.0 in
07:24 4.5 °F 2.8 °F 987.0 in Calm     89 % 0.0 in
07:25 4.5 °F 2.8 °F 987.0 in Calm     89 % 0.0 in
07:27 4.4 °F 2.7 °F 987.0 in SE 1.0 mph 4.7 mph 89 % 0.0 in
07:30 4.4 °F 2.7 °F 987.0 in SE 0.8 mph 4.7 mph 89 % 0.0 in
07:34 4.4 °F 2.7 °F 987.0 in SSE 1.1 mph 4.7 mph 89 % 0.0 in
07:35 4.4 °F 2.9 °F 987.0 in SSE 1.3 mph 4.7 mph 90 % 0.0 in
07:40 4.4 °F 2.9 °F 987.0 in West 0.8 mph 4.7 mph 90 % 0.0 in
07:42 4.4 °F 2.9 °F 987.0 in West 0.8 mph 4.7 mph 90 % 0.0 in
07:45 4.3 °F 2.8 °F 987.0 in West 0.6 mph 4.7 mph 90 % 0.0 in
07:50 4.3 °F 2.8 °F 987.0 in Calm     90 % 0.0 in
07:51 4.3 °F 2.8 °F 987.0 in Calm     90 % 0.0 in
07:56 4.1 °F 2.6 °F 987.0 in SW 0.6 mph 4.0 mph 90 % 0.0 in
07:57 4.1 °F 2.6 °F 987.0 in SW 1.0 mph 4.0 mph 90 % 0.0 in
07:59 4.1 °F 2.6 °F 988.0 in SW 1.1 mph 4.0 mph 90 % 0.0 in
08:04 4.0 °F 2.5 °F 988.0 in WSW 1.9 mph 4.0 mph 90 % 0.0 in
08:06 3.9 °F 2.4 °F 988.0 in NW 1.6 mph 4.0 mph 90 % 0.0 in
08:11 4.0 °F 2.5 °F 988.0 in WNW 0.8 mph 4.3 mph 90 % 0.0 in
08:12 4.0 °F 2.5 °F 988.0 in WNW 0.6 mph 4.3 mph 90 % 0.0 in
08:17 4.0 °F 2.5 °F 988.0 in NW 0.8 mph 4.3 mph 90 % 0.0 in
08:19 4.0 °F 2.5 °F 988.0 in NW 0.3 mph 4.3 mph 90 % 0.0 in
08:24 4.0 °F 2.7 °F 988.0 in NNW 0.2 mph 1.8 mph 91 % 0.0 in
08:25 4.1 °F 2.8 °F 988.0 in Calm     91 % 0.0 in
08:30 4.1 °F 2.8 °F 988.0 in Calm     91 % 0.0 in
08:31 4.1 °F 2.8 °F 988.0 in Calm     91 % 0.0 in
08:36 4.2 °F 2.9 °F 988.0 in Calm     91 % 0.0 in
08:40 4.3 °F 2.9 °F 988.0 in Calm     91 % 0.0 in
08:41 4.3 °F 2.9 °F 988.0 in Calm     91 % 0.0 in
08:46 4.4 °F 3.2 °F 988.0 in Calm     92 % 0.0 in
08:51 4.6 °F 3.4 °F 988.0 in Calm     92 % 0.0 in
08:56 4.9 °F 3.7 °F 988.0 in Calm     92 % 0.0 in
08:57 4.9 °F 3.7 °F 988.0 in Calm     92 % 0.0 in
09:02 5.1 °F 3.9 °F 988.0 in Calm     92 % 0.0 in
09:04 5.1 °F 3.9 °F 988.0 in Calm     92 % 0.0 in
09:09 5.3 °F 4.3 °F 988.0 in Calm     93 % 0.0 in
09:10 5.4 °F 4.3 °F 988.0 in Calm     93 % 0.0 in
09:15 5.5 °F 4.4 °F 988.0 in Calm     93 % 0.0 in
09:18 5.6 °F 4.6 °F 988.0 in Calm     93 % 0.0 in
09:23 5.6 °F 4.6 °F 988.0 in Calm   4.7 mph 93 % 0.0 in
09:27 5.7 °F 4.7 °F 988.0 in SW 1.6 mph 5.5 mph 93 % 0.0 in
09:32 5.7 °F 4.7 °F 988.0 in SW 2.3 mph 5.5 mph 93 % 0.0 in
09:37 5.8 °F 4.9 °F 988.0 in SW 0.6 mph 4.0 mph 94 % 0.0 in
09:38 5.8 °F 4.9 °F 988.0 in SW 0.3 mph 2.1 mph 94 % 0.0 in
09:43 5.8 °F 4.9 °F 988.0 in Calm     94 % 0.0 in
09:48 5.9 °F 5.0 °F 988.0 in Calm     94 % 0.0 in
09:53 6.0 °F 5.1 °F 988.0 in Calm     94 % 0.0 in
09:58 6.0 °F 5.1 °F 989.1 in Calm     94 % 0.0 in
09:59 6.0 °F 5.1 °F 989.1 in Calm     94 % 0.0 in
10:03 6.0 °F 5.1 °F 989.1 in Calm     94 % 0.0 in
10:07 6.0 °F 5.1 °F 989.1 in Calm     94 % 0.0 in
10:08 6.0 °F 5.1 °F 989.1 in Calm     94 % 0.0 in
10:13 6.1 °F 5.2 °F 989.1 in Calm     94 % 0.0 in
10:14 6.1 °F 5.2 °F 989.1 in Calm     94 % 0.0 in
10:19 6.1 °F 5.2 °F 989.1 in NW 1.0 mph 4.0 mph 94 % 0.3 in
10:20 6.1 °F 5.2 °F 989.1 in NW 1.0 mph 4.0 mph 94 % 0.3 in
10:23 6.1 °F 5.2 °F 989.1 in NW 1.0 mph 4.0 mph 94 % 0.3 in
10:26 6.1 °F 5.2 °F 989.1 in North 0.3 mph   94 % 0.8 in
10:31 6.2 °F 5.3 °F 989.1 in Calm     94 % 1.0 in
10:35 6.2 °F 5.3 °F 989.1 in Calm     94 % 1.0 in
10:40 6.2 °F 5.3 °F 989.1 in Calm     94 % 1.3 in
10:41 6.2 °F 5.3 °F 989.1 in Calm     94 % 1.5 in
10:46 6.3 °F 5.6 °F 988.0 in Calm     95 % 1.8 in
10:48 6.3 °F 5.6 °F 988.0 in ENE 0.2 mph 4.7 mph 95 % 1.8 in
10:51 6.3 °F 5.6 °F 988.0 in ENE 0.2 mph 4.7 mph 95 % 1.8 in
10:55 6.3 °F 5.6 °F 988.0 in SE 0.5 mph 5.8 mph 95 % 2.3 in
11:00 6.4 °F 5.7 °F 989.1 in ENE 1.8 mph 11.9 mph 95 % 2.5 in
11:01 6.4 °F 5.7 °F 989.1 in ENE 2.7 mph 13.7 mph 95 % 2.5 in
11:06 6.4 °F 5.7 °F 989.1 in ENE 7.2 mph 14.0 mph 95 % 3.6 in
11:08 6.4 °F 5.7 °F 989.1 in ENE 8.0 mph 16.9 mph 95 % 3.6 in
11:09 6.4 °F 5.7 °F 989.1 in ENE 8.8 mph 16.9 mph 95 % 3.6 in
11:14 6.1 °F 5.2 °F 989.1 in NE 9.5 mph 16.9 mph 94 % 3.8 in
11:17 6.1 °F 5.2 °F 989.1 in NE 9.2 mph 16.9 mph 94 % 3.6 in
11:18 6.1 °F 5.2 °F 989.1 in NE 9.7 mph 15.8 mph 94 % 3.6 in
11:22 6.0 °F 5.1 °F 989.1 in NE 9.5 mph 16.9 mph 94 % 3.8 in
11:27 5.8 °F 4.9 °F 989.1 in ENE 11.1 mph 19.8 mph 94 % 3.0 in
11:28 5.8 °F 4.9 °F 989.1 in ENE 11.1 mph 19.8 mph 94 % 3.0 in
11:33 5.7 °F 4.7 °F 989.1 in NE 10.6 mph 19.8 mph 93 % 3.0 in
11:36 5.6 °F 4.6 °F 989.1 in NE 9.3 mph 19.8 mph 93 % 3.0 in
11:41 5.6 °F 4.6 °F 989.1 in NE 9.0 mph 19.8 mph 93 % 2.5 in
11:43 5.6 °F 4.6 °F 988.0 in ENE 8.8 mph 19.8 mph 93 % 2.5 in
11:48 5.6 °F 4.4 °F 988.0 in ENE 9.8 mph 20.9 mph 92 % 2.5 in
11:51 5.6 °F 4.4 °F 988.0 in ENE 10.9 mph 20.9 mph 92 % 2.5 in
11:53 5.5 °F 4.2 °F 988.0 in ENE 11.7 mph 20.9 mph 91 % 2.3 in
11:58 5.5 °F 4.2 °F 988.0 in ENE 11.7 mph 19.5 mph 91 % 2.0 in
12:03 5.4 °F 3.9 °F 989.1 in East 11.3 mph 20.9 mph 90 % 1.5 in
12:08 5.3 °F 3.8 °F 989.1 in East 11.4 mph 20.9 mph 90 % 1.3 in
12:10 5.3 °F 3.8 °F 989.1 in East 11.7 mph 20.9 mph 90 % 1.3 in
12:15 5.2 °F 3.6 °F 989.1 in ENE 10.0 mph 17.2 mph 89 % 1.3 in
12:17 5.1 °F 3.4 °F 989.1 in ENE 9.0 mph 16.3 mph 89 % 1.5 in
12:22 5.1 °F 3.4 °F 989.1 in NE 8.2 mph 16.6 mph 89 % 1.5 in
12:27 5.0 °F 3.2 °F 989.1 in NE 8.2 mph 16.6 mph 88 % 1.8 in
12:28 5.0 °F 3.2 °F 988.0 in NE 8.2 mph 16.6 mph 88 % 1.8 in
12:33 4.9 °F 3.1 °F 988.0 in NE 6.8 mph 15.1 mph 88 % 2.0 in
12:34 4.9 °F 3.1 °F 988.0 in NE 7.1 mph 17.7 mph 88 % 2.3 in
12:39 4.8 °F 3.0 °F 988.0 in ENE 10.8 mph 20.1 mph 88 % 2.5 in
12:41 4.8 °F 3.0 °F 988.0 in ENE 11.4 mph 20.1 mph 88 % 2.5 in
12:46 4.8 °F 3.0 °F 989.1 in ENE 12.4 mph 20.1 mph 88 % 2.8 in
12:48 4.8 °F 3.0 °F 989.1 in ENE 12.9 mph 25.3 mph 88 % 3.0 in
12:57 4.7 °F 2.7 °F 989.1 in ENE 14.2 mph 21.6 mph 87 % 3.0 in
12:58 4.7 °F 2.7 °F 989.1 in ENE 13.8 mph 21.6 mph 87 % 3.0 in
13:03 4.7 °F 2.7 °F 989.1 in ENE 12.4 mph 25.9 mph 87 % 2.8 in
13:04 4.7 °F 2.7 °F 989.1 in ENE 12.1 mph 25.9 mph 87 % 3.0 in
13:09 4.7 °F 2.7 °F 989.1 in ENE 9.3 mph 20.1 mph 87 % 3.0 in
13:14 4.7 °F 2.7 °F 989.1 in ENE 9.0 mph 20.1 mph 87 % 3.0 in
13:15 4.6 °F 2.6 °F 989.1 in NE 9.2 mph 20.1 mph 87 % 3.0 in
13:18 4.6 °F 2.6 °F 989.1 in NE 9.8 mph 16.3 mph 87 % 3.0 in
13:21 4.6 °F 2.4 °F 989.1 in NE 9.3 mph 16.9 mph 86 % 3.0 in
13:26 4.6 °F 2.4 °F 989.1 in NE 8.7 mph 17.7 mph 86 % 3.3 in
13:27 4.6 °F 2.4 °F 989.1 in ENE 8.5 mph 17.7 mph 86 % 3.3 in
13:28 4.6 °F 2.4 °F 989.1 in ENE 8.7 mph 17.7 mph 86 % 3.0 in
13:32 4.5 °F 2.3 °F 988.0 in ENE 10.5 mph 17.7 mph 86 % 3.0 in
13:34 4.5 °F 2.3 °F 988.0 in ENE 12.1 mph 17.7 mph 86 % 3.0 in
13:39 4.4 °F 2.3 °F 988.0 in ENE 11.7 mph 17.2 mph 86 % 2.8 in
13:40 4.4 °F 2.3 °F 988.0 in ENE 11.3 mph 16.6 mph 86 % 2.8 in
13:42 4.4 °F 2.3 °F 988.0 in East 10.9 mph 17.2 mph 86 % 2.8 in
13:47 4.4 °F 2.3 °F 989.1 in East 9.5 mph 17.2 mph 86 % 2.5 in
13:52 4.3 °F 2.2 °F 989.1 in East 9.7 mph 16.9 mph 86 % 2.8 in
13:54 4.3 °F 2.2 °F 989.1 in East 9.7 mph 16.9 mph 86 % 3.0 in
13:58 4.3 °F 2.2 °F 989.1 in ENE 9.8 mph 16.9 mph 86 % 2.8 in
14:02 4.2 °F 2.1 °F 989.1 in ENE 9.2 mph 16.9 mph 86 % 3.0 in
14:05 4.2 °F 2.1 °F 989.1 in ENE 7.7 mph 15.4 mph 86 % 2.8 in
14:10 4.1 °F 1.9 °F 989.1 in East 6.9 mph 15.4 mph 86 % 2.5 in
14:11 4.1 °F 1.9 °F 989.1 in East 6.9 mph 15.4 mph 86 % 2.8 in
14:16 4.1 °F 1.9 °F 990.1 in East 8.2 mph 13.0 mph 86 % 2.5 in
14:21 4.1 °F 1.9 °F 990.1 in East 8.4 mph 17.2 mph 86 % 2.3 in
14:22 4.1 °F 1.9 °F 990.1 in East 8.4 mph 17.2 mph 86 % 2.3 in
14:27 4.0 °F 1.9 °F 990.1 in East 7.6 mph 17.2 mph 86 % 2.3 in
14:32 4.0 °F 1.9 °F 991.1 in East 6.3 mph 9.7 mph 86 % 2.0 in
14:34 3.9 °F 1.8 °F 991.1 in East 5.3 mph 9.7 mph 86 % 2.0 in
14:39 3.8 °F 1.7 °F 991.1 in ESE 4.8 mph 10.5 mph 86 % 1.8 in
14:40 3.8 °F 1.7 °F 991.1 in ESE 5.0 mph 10.5 mph 86 % 1.8 in
14:44 3.8 °F 1.7 °F 991.1 in SE 4.8 mph 10.5 mph 86 % 2.0 in
14:48 3.7 °F 1.6 °F 991.1 in SE 3.7 mph 9.7 mph 86 % 1.8 in
14:50 3.7 °F 1.6 °F 991.1 in SSE 3.9 mph 10.1 mph 86 % 1.8 in
14:51 3.7 °F 1.6 °F 991.1 in South 3.9 mph 10.1 mph 86 % 1.8 in
14:53 3.7 °F 1.6 °F 991.1 in South 3.5 mph 10.1 mph 86 % 1.8 in
14:56 3.6 °F 1.5 °F 991.1 in SSE 4.3 mph 11.1 mph 86 % 1.8 in
15:00 3.6 °F 1.5 °F 991.1 in ESE 4.0 mph 11.1 mph 86 % 1.8 in
15:05 3.5 °F 1.4 °F 991.1 in ESE 2.3 mph 8.7 mph 86 % 1.8 in
15:11 3.3 °F 1.2 °F 991.1 in ENE 3.1 mph 8.7 mph 86 % 1.8 in
15:15 3.2 °F 1.1 °F 992.1 in ENE 5.8 mph 10.1 mph 86 % 1.8 in
15:20 3.1 °F 1.0 °F 992.1 in NE 4.3 mph 10.1 mph 86 % 1.8 in
15:22 3.1 °F 1.0 °F 992.1 in NE 3.5 mph 7.9 mph 86 % 1.8 in
15:25 3.0 °F 0.9 °F 992.1 in NNE 1.6 mph 5.0 mph 86 % 2.0 in
15:30 2.9 °F 0.8 °F 992.1 in East 1.4 mph 5.0 mph 86 % 2.0 in
15:31 2.9 °F 0.8 °F 992.1 in East 1.8 mph 5.0 mph 86 % 2.3 in
15:33 2.8 °F 0.7 °F 992.1 in East 1.9 mph 5.0 mph 86 % 2.3 in
15:38 2.7 °F 0.6 °F 992.1 in East 2.4 mph 4.3 mph 86 % 2.5 in
15:39 2.7 °F 0.6 °F 992.1 in East 2.1 mph 4.3 mph 86 % 2.5 in
15:44 2.5 °F 0.4 °F 993.1 in East 0.8 mph 4.3 mph 86 % 2.8 in
15:46 2.4 °F 0.3 °F 993.1 in North 0.2 mph   86 % 2.5 in
15:49 2.2 °F 0.1 °F 993.1 in Calm     86 % 2.5 in
15:54 2.1 °F 0.0 °F 993.1 in Calm     86 % 2.5 in
15:59 1.8 °F -0.1 °F 993.1 in SW 1.9 mph 5.5 mph 87 % 2.3 in
16:00 1.8 °F -0.1 °F 993.1 in SW 1.9 mph 5.5 mph 87 % 2.3 in
16:05 1.6 °F -0.3 °F 993.1 in SW 3.4 mph 5.5 mph 87 % 2.0 in
16:06 1.6 °F -0.3 °F 993.1 in SSW 3.1 mph 5.5 mph 87 % 2.0 in
16:11 1.4 °F -0.7 °F 993.1 in South 1.1 mph 3.5 mph 86 % 2.0 in
16:12 1.4 °F -0.7 °F 993.1 in SSW 0.8 mph 3.5 mph 86 % 2.3 in
16:17 1.2 °F -0.9 °F 993.1 in WNW 1.6 mph 6.9 mph 86 % 2.3 in
16:18 1.2 °F -0.9 °F 993.1 in NW 1.8 mph 6.9 mph 86 % 2.3 in
16:23 1.1 °F -1.0 °F 993.1 in WNW 2.7 mph 6.9 mph 86 % 2.3 in
16:24 1.1 °F -1.0 °F 993.1 in WNW 2.7 mph 6.9 mph 86 % 2.3 in
16:29 1.1 °F -0.8 °F 992.1 in SW 3.7 mph 10.1 mph 87 % 1.8 in
16:30 1.1 °F -0.8 °F 992.1 in SW 4.0 mph 10.1 mph 87 % 2.0 in
16:35 1.1 °F -0.8 °F 992.1 in SSW 4.2 mph 10.1 mph 87 % 1.3 in
16:39 1.1 °F -0.8 °F 992.1 in SSW 3.4 mph 6.9 mph 87 % 1.0 in
16:44 1.1 °F -0.8 °F 993.1 in WSW 2.9 mph 6.9 mph 87 % 1.0 in
16:45 1.1 °F -0.8 °F 993.1 in WSW 2.9 mph 6.9 mph 87 % 1.0 in
16:50 1.0 °F -0.9 °F 993.1 in NNW 0.8 mph 3.5 mph 87 % 1.0 in
16:51 1.0 °F -0.9 °F 993.1 in North 0.6 mph 3.5 mph 87 % 1.0 in
16:56 0.9 °F -1.0 °F 993.1 in NNE 0.3 mph 3.2 mph 87 % 0.8 in
16:58 0.9 °F -1.0 °F 993.1 in NNE 0.3 mph 3.2 mph 87 % 0.8 in
17:03 0.9 °F -0.9 °F 993.1 in Calm     88 % 0.8 in
17:05 0.9 °F -0.9 °F 993.1 in Calm     88 % 0.8 in
17:11 0.8 °F -0.9 °F 993.1 in Calm     88 % 0.5 in
17:16 0.8 °F -0.9 °F 994.1 in South 0.3 mph 4.0 mph 88 % 0.5 in
17:19 0.8 °F -0.9 °F 994.1 in South 0.3 mph 4.0 mph 88 % 0.5 in
17:23 0.8 °F -0.9 °F 994.1 in SW 1.4 mph 4.0 mph 88 % 0.5 in
17:27 0.8 °F -0.9 °F 994.1 in SW 1.1 mph 4.0 mph 88 % 0.5 in
17:32 0.8 °F -0.9 °F 995.1 in SSW 1.1 mph 4.0 mph 88 % 0.5 in
17:34 0.8 °F -0.9 °F 995.1 in South 1.4 mph 4.0 mph 88 % 0.5 in
17:39 0.9 °F -0.9 °F 995.1 in South 1.6 mph 4.0 mph 88 % 0.5 in
17:40 0.9 °F -0.7 °F 995.1 in South 1.4 mph 4.7 mph 89 % 0.3 in
17:41 0.9 °F -0.7 °F 995.1 in South 1.6 mph 4.7 mph 89 % 0.3 in
17:46 0.9 °F -0.7 °F 995.1 in SSW 0.6 mph 4.7 mph 89 % 0.3 in
17:49 0.8 °F -0.8 °F 995.1 in SSW 0.6 mph 4.7 mph 89 % 0.5 in
17:51 0.8 °F -0.8 °F 995.1 in SW 0.2 mph 2.1 mph 89 % 0.5 in
17:55 0.8 °F -0.8 °F 995.1 in Calm     89 % 0.5 in
17:56 0.8 °F -0.8 °F 995.1 in Calm     89 % 0.5 in
18:01 0.8 °F -0.8 °F 995.1 in Calm     89 % 0.5 in
18:02 0.8 °F -0.8 °F 995.1 in Calm     89 % 0.5 in
18:07 0.7 °F -0.9 °F 995.1 in Calm     89 % 0.5 in
18:08 0.7 °F -0.9 °F 995.1 in Calm     89 % 0.5 in
18:13 0.7 °F -0.9 °F 995.1 in Calm     89 % 0.5 in
18:18 0.7 °F -0.9 °F 995.1 in Calm     89 % 0.3 in
18:19 0.7 °F -0.9 °F 995.1 in Calm     89 % 0.3 in
18:24 0.7 °F -0.9 °F 995.1 in Calm     89 % 0.3 in
18:29 0.7 °F -0.8 °F 995.1 in Calm     90 % 0.3 in
18:30 0.7 °F -0.8 °F 995.1 in Calm     90 % 0.3 in
18:35 0.7 °F -0.8 °F 995.1 in Calm     90 % 0.3 in
18:36 0.7 °F -0.8 °F 995.1 in Calm     90 % 0.3 in
18:41 0.7 °F -0.8 °F 995.1 in Calm     90 % 0.3 in
18:46 0.7 °F -0.8 °F 996.2 in Calm     90 % 0.0 in
18:50 0.6 °F -0.8 °F 996.2 in Calm     90 % 0.0 in
18:56 0.6 °F -0.8 °F 996.2 in Calm     90 % 0.0 in
18:57 0.6 °F -0.8 °F 996.2 in Calm     90 % 0.0 in
19:02 0.6 °F -0.8 °F 996.2 in Calm     90 % 0.0 in
19:03 0.6 °F -0.8 °F 996.2 in Calm     90 % 0.0 in
19:05 0.6 °F -0.8 °F 996.2 in Calm     90 % 0.0 in
19:09 0.6 °F -0.8 °F 996.2 in Calm     90 % 0.0 in
19:11 0.6 °F -0.8 °F 996.2 in Calm     90 % 0.0 in
19:15 0.6 °F -0.8 °F 996.2 in Calm     90 % 0.0 in
19:20 0.6 °F -0.7 °F 996.2 in Calm     91 % 0.0 in
19:25 0.7 °F -0.6 °F 996.2 in Calm     91 % 0.0 in
19:27 0.7 °F -0.6 °F 996.2 in Calm     91 % 0.0 in
19:30 0.7 °F -0.6 °F 996.8 in Calm     91 % 0.0 in
19:34 0.7 °F -0.6 °F 996.8 in Calm     91 % 0.0 in
19:39 0.7 °F -0.6 °F 996.8 in Calm     91 % 0.0 in
19:44 0.7 °F -0.6 °F 996.8 in Calm     91 % 0.3 in
19:45 0.7 °F -0.6 °F 996.8 in Calm     91 % 0.3 in
19:46 0.7 °F -0.6 °F 996.8 in Calm     91 % 0.3 in
19:49 0.7 °F -0.6 °F 996.8 in Calm     91 % 0.3 in
19:52 0.7 °F -0.6 °F 996.8 in Calm     91 % 0.3 in
19:57 0.7 °F -0.4 °F 996.8 in Calm     92 % 0.3 in
20:02 0.7 °F -0.4 °F 997.9 in Calm     92 % 0.3 in
20:03 0.7 °F -0.4 °F 997.9 in Calm     92 % 0.3 in
20:07 0.6 °F -0.6 °F 997.9 in Calm     92 % 0.3 in
20:12 0.6 °F -0.6 °F 997.9 in Calm     92 % 0.3 in
20:14 0.6 °F -0.6 °F 996.8 in Calm     92 % 0.3 in
20:18 0.6 °F -0.6 °F 996.8 in Calm     92 % 0.3 in
20:19 0.6 °F -0.6 °F 996.8 in Calm     92 % 0.3 in
20:27 0.6 °F -0.6 °F 996.8 in Calm     92 % 0.3 in
20:28 0.6 °F -0.6 °F 996.8 in Calm     92 % 0.3 in
20:33 0.6 °F -0.6 °F 996.8 in Calm     92 % 0.3 in
20:34 0.6 °F -0.6 °F 996.8 in Calm     92 % 0.3 in
20:39 0.6 °F -0.6 °F 996.8 in Calm     92 % 0.3 in
20:42 0.6 °F -0.6 °F 996.8 in Calm     92 % 0.3 in
20:47 0.6 °F -0.4 °F 996.8 in Calm     93 % 0.3 in
20:52 0.6 °F -0.4 °F 996.8 in Calm     93 % 0.3 in
20:54 0.6 °F -0.4 °F 996.8 in Calm     93 % 0.3 in
20:59 0.6 °F -0.4 °F 997.9 in Calm     93 % 0.3 in
21:04 0.6 °F -0.4 °F 997.9 in Calm     93 % 0.3 in
21:05 0.6 °F -0.4 °F 997.9 in Calm     93 % 0.3 in
21:08 0.6 °F -0.4 °F 997.9 in Calm     93 % 0.3 in
21:10 0.6 °F -0.4 °F 997.9 in Calm   1.4 mph 93 % 0.3 in
21:15 0.6 °F -0.4 °F 997.9 in Calm   1.4 mph 93 % 0.3 in
21:18 0.6 °F -0.4 °F 997.9 in Calm   1.4 mph 93 % 0.3 in
21:23 0.6 °F -0.4 °F 997.9 in Calm     93 % 0.3 in
21:25 0.6 °F -0.4 °F 997.9 in Calm     93 % 0.3 in
21:30 0.6 °F -0.4 °F 998.9 in Calm     93 % 0.3 in
21:35 0.6 °F -0.4 °F 998.9 in Calm     93 % 0.3 in
21:36 0.6 °F -0.4 °F 998.9 in Calm     93 % 0.3 in
21:37 0.6 °F -0.4 °F 998.9 in Calm     93 % 0.3 in
21:42 0.7 °F -0.3 °F 998.9 in Calm     93 % 0.3 in
21:47 0.7 °F -0.3 °F 998.9 in Calm     93 % 0.3 in
21:49 0.7 °F -0.3 °F 998.9 in Calm     93 % 0.3 in
21:54 0.7 °F -0.2 °F 998.9 in Calm     94 % 0.3 in
21:56 0.7 °F -0.2 °F 998.9 in Calm     94 % 0.3 in
22:01 0.7 °F -0.2 °F 998.9 in Calm     94 % 0.3 in
22:06 0.7 °F -0.2 °F 998.9 in Calm     94 % 0.3 in
22:08 0.7 °F -0.2 °F 998.9 in Calm     94 % 0.3 in
22:13 0.7 °F -0.2 °F 998.9 in Calm     94 % 0.3 in
22:15 0.7 °F -0.2 °F 998.9 in Calm     94 % 0.0 in
22:19 0.7 °F -0.2 °F 998.9 in Calm     94 % 0.0 in
22:21 0.7 °F -0.2 °F 998.9 in Calm     94 % 0.0 in
22:26 0.7 °F -0.2 °F 998.9 in Calm     94 % 0.0 in
22:27 0.7 °F -0.2 °F 998.9 in Calm     94 % 0.0 in
22:32 0.7 °F -0.2 °F 997.9 in Calm     94 % 0.3 in
22:35 0.7 °F -0.2 °F 997.9 in Calm     94 % 0.3 in
22:40 0.7 °F -0.2 °F 997.9 in Calm     94 % 0.3 in
22:45 0.7 °F -0.2 °F 998.9 in Calm     94 % 0.3 in
22:49 0.7 °F -0.2 °F 998.9 in Calm     94 % 0.3 in
22:54 0.7 °F -0.2 °F 998.9 in Calm     94 % 0.3 in
22:55 0.7 °F -0.2 °F 998.9 in Calm     94 % 0.3 in
22:58 0.7 °F -0.2 °F 998.9 in Calm     94 % 0.3 in
23:01 0.7 °F -0.2 °F 998.9 in Calm     94 % 0.3 in
23:06 0.7 °F -0.2 °F 998.9 in Calm     94 % 0.3 in
23:09 0.7 °F -0.2 °F 998.9 in Calm     94 % 0.3 in
23:14 0.7 °F -0.2 °F 999.9 in Calm     94 % 0.3 in
23:19 0.7 °F -0.2 °F 999.9 in Calm     94 % 0.3 in
23:24 0.7 °F -0.2 °F 999.9 in Calm     94 % 0.3 in
23:29 0.7 °F -0.2 °F 998.9 in Calm     94 % 0.3 in
23:30 0.7 °F -0.2 °F 998.9 in Calm     94 % 0.0 in
23:31 0.7 °F -0.2 °F 998.9 in Calm     94 % 0.0 in
23:36 0.7 °F 0.0 °F 998.9 in Calm     95 % 0.0 in
23:37 0.7 °F 0.0 °F 998.9 in Calm     95 % 0.0 in
23:42 0.6 °F -0.1 °F 998.9 in Calm     95 % 0.0 in
23:43 0.6 °F -0.1 °F 998.9 in Calm     95 % 0.0 in
23:48 0.6 °F -0.1 °F 998.9 in Calm     95 % 0.0 in
23:49 0.6 °F -0.1 °F 998.9 in Calm     95 % 0.0 in
23:50 0.6 °F -0.1 °F 998.9 in Calm     95 % 0.0 in
23:55 0.6 °F -0.1 °F 998.9 in Calm     95 % 0.0 in
23:58 0.6 °F -0.1 °F 998.9 in Calm     95 % 0.0 in
Vremenska postaja Senovo
Podatki zbrani iz Weather Underground - 3.75 mb

Script developed by  Jim McMurry - jmcmurry@mwt.net Adapted for the template by  Wim van der Kuil - Leuven-Template.eu

Vremenski podatki so objavljeni na:

European Weather Network

WeatherCloud

Weather Underground

AWEKAS

HAMweather, WeatherForYou, PWS Weather

MapView

Geostik

Slovenia weather network

Oprema, ki se uporablja:

Vremenski program
Cumulus

Vremenski server
Asus

Cumulus

Asus